WMT5151 LGAV-LATI
Flight info
| Callsign | WMT5151 |
|---|---|
| Flight time | 0h 59m |
| Altitude | 36000 |
| Route | KOR UL53 IXONI DCT YNN UL604 DIMIS DCT ADDER DCT ELBAK |
| Aircraft | A21N/M-SDE2E3FGHIJ1RWXY/LB1 |
Departure
| Time | 2026-05-08 16:24 |
|---|---|
| Airport | Athens Eleftherios Venizelos International Airport (LGAV) |
Arrival
| Time | 2026-05-08 17:23 |
|---|---|
| Airport | Tirana International Airport Mother Teresa (LATI) |
| Time | Latitude | Longitude | Altitude | Speed | Heading |
|---|---|---|---|---|---|
| 2026-05-08 15:44 | 37.93073 | 23.94228 | 307 ft | 0 kts | 37° |
| 2026-05-08 16:12 | 37.93067 | 23.94222 | 306 ft | 4 kts | 37° |
| 2026-05-08 16:12 | 37.93049 | 23.94205 | 308 ft | 3 kts | 37° |
| 2026-05-08 16:12 | 37.93028 | 23.94185 | 307 ft | 4 kts | 42° |
| 2026-05-08 16:12 | 37.93012 | 23.94160 | 307 ft | 4 kts | 70° |
| 2026-05-08 16:13 | 37.93013 | 23.94137 | 307 ft | 4 kts | 127° |
| 2026-05-08 16:13 | 37.93026 | 23.94116 | 309 ft | 0 kts | 127° |
| 2026-05-08 16:17 | 37.93022 | 23.94122 | 307 ft | 3 kts | 128° |
| 2026-05-08 16:17 | 37.92985 | 23.94182 | 308 ft | 10 kts | 129° |
| 2026-05-08 16:17 | 37.92933 | 23.94270 | 307 ft | 14 kts | 127° |
| 2026-05-08 16:18 | 37.92882 | 23.94362 | 307 ft | 11 kts | 107° |
| 2026-05-08 16:18 | 37.92839 | 23.94450 | 308 ft | 12 kts | 117° |
| 2026-05-08 16:18 | 37.92868 | 23.94543 | 307 ft | 13 kts | 36° |
| 2026-05-08 16:18 | 37.92942 | 23.94611 | 307 ft | 13 kts | 37° |
| 2026-05-08 16:19 | 37.93017 | 23.94685 | 307 ft | 14 kts | 39° |
| 2026-05-08 16:19 | 37.93102 | 23.94764 | 306 ft | 15 kts | 35° |
| 2026-05-08 16:19 | 37.93170 | 23.94828 | 306 ft | 11 kts | 36° |
| 2026-05-08 16:19 | 37.93234 | 23.94888 | 305 ft | 12 kts | 36° |
| 2026-05-08 16:20 | 37.93318 | 23.94969 | 305 ft | 20 kts | 36° |
| 2026-05-08 16:20 | 37.93432 | 23.95076 | 306 ft | 21 kts | 36° |
| 2026-05-08 16:20 | 37.93548 | 23.95185 | 305 ft | 21 kts | 37° |
| 2026-05-08 16:20 | 37.93667 | 23.95299 | 303 ft | 22 kts | 36° |
| 2026-05-08 16:21 | 37.93789 | 23.95414 | 302 ft | 22 kts | 36° |
| 2026-05-08 16:21 | 37.93917 | 23.95534 | 303 ft | 23 kts | 37° |
| 2026-05-08 16:21 | 37.94051 | 23.95662 | 303 ft | 25 kts | 37° |
| 2026-05-08 16:21 | 37.94192 | 23.95796 | 304 ft | 26 kts | 37° |
| 2026-05-08 16:22 | 37.94339 | 23.95936 | 304 ft | 27 kts | 37° |
| 2026-05-08 16:22 | 37.94493 | 23.96082 | 305 ft | 28 kts | 37° |
| 2026-05-08 16:22 | 37.94628 | 23.96209 | 306 ft | 15 kts | 38° |
| 2026-05-08 16:22 | 37.94655 | 23.96270 | 306 ft | 6 kts | 89° |
| 2026-05-08 16:23 | 37.94635 | 23.96318 | 302 ft | 7 kts | 153° |
| 2026-05-08 16:23 | 37.94584 | 23.96319 | 304 ft | 8 kts | 187° |
| 2026-05-08 16:23 | 37.94519 | 23.96310 | 297 ft | 11 kts | 187° |
| 2026-05-08 16:23 | 37.94394 | 23.96259 | 295 ft | 30 kts | 210° |
| 2026-05-08 16:24 | 37.94082 | 23.95969 | 292 ft | 92 kts | 217° |
| 2026-05-08 16:24 | 37.93382 | 23.95301 | 302 ft | 153 kts | 217° |
| 2026-05-08 16:24 | 37.92541 | 23.94516 | 980 ft | 148 kts | 216° |
| 2026-05-08 16:24 | 37.91621 | 23.93854 | 1544 ft | 157 kts | 201° |
| 2026-05-08 16:25 | 37.90605 | 23.93302 | 2163 ft | 164 kts | 206° |
| 2026-05-08 16:25 | 37.89571 | 23.92565 | 2633 ft | 174 kts | 211° |
| 2026-05-08 16:25 | 37.88477 | 23.91780 | 3168 ft | 187 kts | 207° |
| 2026-05-08 16:25 | 37.87274 | 23.91024 | 3711 ft | 200 kts | 207° |
| 2026-05-08 16:26 | 37.85968 | 23.90170 | 4020 ft | 225 kts | 211° |
| 2026-05-08 16:26 | 37.84558 | 23.89205 | 4652 ft | 234 kts | 210° |
| 2026-05-08 16:26 | 37.83099 | 23.88250 | 5387 ft | 240 kts | 213° |
| 2026-05-08 16:26 | 37.81771 | 23.86942 | 5964 ft | 247 kts | 234° |
| 2026-05-08 16:27 | 37.81069 | 23.84964 | 6637 ft | 248 kts | 260° |
| 2026-05-08 16:27 | 37.81068 | 23.82774 | 7390 ft | 253 kts | 281° |
| 2026-05-08 16:27 | 37.81566 | 23.80634 | 8227 ft | 254 kts | 285° |
| 2026-05-08 16:27 | 37.82099 | 23.78496 | 9031 ft | 256 kts | 284° |
| 2026-05-08 16:28 | 37.82610 | 23.76330 | 9828 ft | 259 kts | 284° |
| 2026-05-08 16:28 | 37.83121 | 23.74121 | 10400 ft | 269 kts | 284° |
| 2026-05-08 16:28 | 37.83660 | 23.71764 | 10661 ft | 289 kts | 284° |
| 2026-05-08 16:28 | 37.84232 | 23.69237 | 10891 ft | 308 kts | 284° |
| 2026-05-08 16:29 | 37.84828 | 23.66583 | 11107 ft | 327 kts | 284° |
| 2026-05-08 16:29 | 37.85465 | 23.63744 | 11338 ft | 344 kts | 284° |
| 2026-05-08 16:29 | 37.86128 | 23.60801 | 11786 ft | 352 kts | 284° |
| 2026-05-08 16:29 | 37.86803 | 23.57794 | 12378 ft | 356 kts | 284° |
| 2026-05-08 16:30 | 37.87482 | 23.54760 | 12981 ft | 360 kts | 284° |
| 2026-05-08 16:30 | 37.88168 | 23.51697 | 13592 ft | 363 kts | 284° |
| 2026-05-08 16:30 | 37.88856 | 23.48612 | 14132 ft | 366 kts | 283° |
| 2026-05-08 16:30 | 37.89549 | 23.45505 | 14643 ft | 369 kts | 283° |
| 2026-05-08 16:31 | 37.90249 | 23.42364 | 15207 ft | 371 kts | 283° |
| 2026-05-08 16:31 | 37.90949 | 23.39216 | 15804 ft | 372 kts | 283° |
| 2026-05-08 16:31 | 37.91651 | 23.36049 | 16390 ft | 375 kts | 283° |
| 2026-05-08 16:31 | 37.92357 | 23.32857 | 16959 ft | 377 kts | 283° |
| 2026-05-08 16:32 | 37.93067 | 23.29643 | 17526 ft | 380 kts | 283° |
| 2026-05-08 16:32 | 37.93782 | 23.26404 | 18075 ft | 383 kts | 283° |
| 2026-05-08 16:32 | 37.94501 | 23.23152 | 18563 ft | 386 kts | 283° |
| 2026-05-08 16:32 | 37.95227 | 23.19855 | 19026 ft | 389 kts | 283° |
| 2026-05-08 16:33 | 37.95955 | 23.16540 | 19494 ft | 391 kts | 283° |
| 2026-05-08 16:33 | 37.96686 | 23.13216 | 19922 ft | 394 kts | 283° |
| 2026-05-08 16:33 | 37.97420 | 23.09867 | 20394 ft | 396 kts | 283° |
| 2026-05-08 16:33 | 37.98160 | 23.06492 | 20910 ft | 397 kts | 283° |
| 2026-05-08 16:34 | 37.98901 | 23.03109 | 21402 ft | 399 kts | 283° |
| 2026-05-08 16:34 | 37.99645 | 22.99711 | 21867 ft | 401 kts | 283° |
| 2026-05-08 16:34 | 38.00389 | 22.96297 | 22330 ft | 404 kts | 283° |
| 2026-05-08 16:34 | 38.01140 | 22.92850 | 22798 ft | 407 kts | 283° |
| 2026-05-08 16:35 | 38.01894 | 22.89375 | 23255 ft | 409 kts | 283° |
| 2026-05-08 16:35 | 38.02645 | 22.85890 | 23694 ft | 411 kts | 283° |
| 2026-05-08 16:35 | 38.03406 | 22.82389 | 24073 ft | 414 kts | 283° |
| 2026-05-08 16:35 | 38.04174 | 22.78853 | 24444 ft | 415 kts | 283° |
| 2026-05-08 16:36 | 38.04938 | 22.75322 | 24848 ft | 416 kts | 283° |
| 2026-05-08 16:36 | 38.05745 | 22.71796 | 25230 ft | 417 kts | 287° |
| 2026-05-08 16:36 | 38.06935 | 22.68434 | 25694 ft | 419 kts | 296° |
| 2026-05-08 16:36 | 38.08529 | 22.65326 | 26169 ft | 419 kts | 300° |
| 2026-05-08 16:37 | 38.10202 | 22.62295 | 26631 ft | 418 kts | 301° |
| 2026-05-08 16:37 | 38.11870 | 22.59287 | 27094 ft | 416 kts | 300° |
| 2026-05-08 16:37 | 38.13499 | 22.56329 | 27538 ft | 414 kts | 300° |
| 2026-05-08 16:37 | 38.15140 | 22.53321 | 27994 ft | 413 kts | 300° |
| 2026-05-08 16:38 | 38.16774 | 22.50326 | 28456 ft | 411 kts | 300° |
| 2026-05-08 16:38 | 38.18396 | 22.47349 | 28904 ft | 409 kts | 300° |
| 2026-05-08 16:38 | 38.20015 | 22.44382 | 29397 ft | 407 kts | 300° |
| 2026-05-08 16:38 | 38.21624 | 22.41429 | 29894 ft | 404 kts | 300° |
| 2026-05-08 16:39 | 38.23219 | 22.38498 | 30327 ft | 402 kts | 300° |
| 2026-05-08 16:39 | 38.24803 | 22.35579 | 30698 ft | 399 kts | 300° |
| 2026-05-08 16:39 | 38.26375 | 22.32681 | 31047 ft | 397 kts | 300° |
| 2026-05-08 16:39 | 38.27943 | 22.29785 | 31384 ft | 396 kts | 300° |
| 2026-05-08 16:40 | 38.29501 | 22.26906 | 31704 ft | 395 kts | 300° |
| 2026-05-08 16:40 | 38.31128 | 22.24090 | 32033 ft | 397 kts | 304° |
| 2026-05-08 16:40 | 38.33070 | 22.21632 | 32344 ft | 402 kts | 313° |
| 2026-05-08 16:40 | 38.35290 | 22.19379 | 32666 ft | 403 kts | 315° |
| 2026-05-08 16:41 | 38.37503 | 22.17204 | 33027 ft | 400 kts | 315° |
| 2026-05-08 16:41 | 38.38960 | 22.15771 | 33224 ft | 398 kts | 315° |
| 2026-05-08 16:41 | 38.41846 | 22.12914 | 33628 ft | 396 kts | 315° |
| 2026-05-08 16:42 | 38.46150 | 22.08616 | 34172 ft | 391 kts | 314° |
| 2026-05-08 16:42 | 38.48285 | 22.06472 | 34331 ft | 391 kts | 314° |
| 2026-05-08 16:42 | 38.49732 | 22.05023 | 34428 ft | 391 kts | 314° |
| 2026-05-08 16:42 | 38.51849 | 22.02901 | 34557 ft | 392 kts | 314° |
| 2026-05-08 16:43 | 38.53998 | 22.00751 | 34693 ft | 393 kts | 314° |
| 2026-05-08 16:43 | 38.56148 | 21.98594 | 34879 ft | 393 kts | 314° |
| 2026-05-08 16:43 | 38.58296 | 21.96441 | 35054 ft | 392 kts | 315° |
| 2026-05-08 16:43 | 38.60445 | 21.94304 | 35198 ft | 392 kts | 315° |
| 2026-05-08 16:44 | 38.62596 | 21.92156 | 35316 ft | 393 kts | 315° |
| 2026-05-08 16:44 | 38.64744 | 21.89998 | 35449 ft | 393 kts | 315° |
| 2026-05-08 16:44 | 38.66899 | 21.87833 | 35565 ft | 394 kts | 315° |
| 2026-05-08 16:44 | 38.69054 | 21.85666 | 35692 ft | 395 kts | 315° |
| 2026-05-08 16:45 | 38.71221 | 21.83484 | 35879 ft | 396 kts | 315° |
| 2026-05-08 16:45 | 38.73386 | 21.81304 | 36023 ft | 396 kts | 315° |
| 2026-05-08 16:45 | 38.75549 | 21.79125 | 36113 ft | 396 kts | 315° |
| 2026-05-08 16:46 | 38.79868 | 21.74767 | 36084 ft | 393 kts | 315° |
| 2026-05-08 16:46 | 38.84163 | 21.70424 | 36095 ft | 394 kts | 315° |
| 2026-05-08 16:47 | 38.88462 | 21.66065 | 36041 ft | 397 kts | 315° |
| 2026-05-08 16:47 | 38.92800 | 21.61670 | 36051 ft | 398 kts | 315° |
| 2026-05-08 16:48 | 38.97152 | 21.57246 | 36056 ft | 398 kts | 315° |
| 2026-05-08 16:48 | 39.01484 | 21.52834 | 36061 ft | 397 kts | 315° |
| 2026-05-08 16:49 | 39.05806 | 21.48424 | 36062 ft | 397 kts | 315° |
| 2026-05-08 16:49 | 39.10144 | 21.43993 | 36066 ft | 398 kts | 315° |
| 2026-05-08 16:50 | 39.14496 | 21.39552 | 36077 ft | 401 kts | 315° |
| 2026-05-08 16:50 | 39.18868 | 21.35076 | 36057 ft | 401 kts | 315° |
| 2026-05-08 16:51 | 39.23245 | 21.30579 | 36068 ft | 402 kts | 315° |
| 2026-05-08 16:51 | 39.27590 | 21.26110 | 36043 ft | 402 kts | 315° |
| 2026-05-08 16:52 | 39.31963 | 21.21609 | 36050 ft | 401 kts | 315° |
| 2026-05-08 16:52 | 39.36331 | 21.17109 | 36056 ft | 402 kts | 315° |
| 2026-05-08 16:53 | 39.42913 | 21.10300 | 36070 ft | 406 kts | 316° |
| 2026-05-08 16:53 | 39.47328 | 21.05723 | 36062 ft | 406 kts | 316° |
| 2026-05-08 16:54 | 39.51738 | 21.01156 | 36053 ft | 406 kts | 316° |
| 2026-05-08 16:54 | 39.56153 | 20.96579 | 36045 ft | 406 kts | 316° |
| 2026-05-08 16:55 | 39.60555 | 20.91994 | 36046 ft | 406 kts | 316° |
| 2026-05-08 16:55 | 39.64957 | 20.87399 | 36076 ft | 407 kts | 316° |
| 2026-05-08 16:56 | 39.69401 | 20.82839 | 36057 ft | 415 kts | 320° |
| 2026-05-08 16:56 | 39.74579 | 20.79296 | 36063 ft | 420 kts | 329° |
| 2026-05-08 16:57 | 39.79869 | 20.76149 | 36058 ft | 418 kts | 329° |
| 2026-05-08 16:57 | 39.85147 | 20.72958 | 36048 ft | 418 kts | 329° |
| 2026-05-08 16:58 | 39.90408 | 20.69759 | 36051 ft | 420 kts | 330° |
| 2026-05-08 16:58 | 39.95750 | 20.66504 | 36037 ft | 425 kts | 330° |
| 2026-05-08 16:59 | 40.01116 | 20.63232 | 36032 ft | 425 kts | 330° |
| 2026-05-08 16:59 | 40.06475 | 20.59961 | 36026 ft | 425 kts | 330° |
| 2026-05-08 17:00 | 40.11798 | 20.56605 | 36013 ft | 424 kts | 329° |
| 2026-05-08 17:00 | 40.17113 | 20.53187 | 36039 ft | 429 kts | 329° |
| 2026-05-08 17:01 | 40.22475 | 20.49748 | 36023 ft | 429 kts | 329° |
| 2026-05-08 17:01 | 40.27836 | 20.46311 | 36018 ft | 429 kts | 329° |
| 2026-05-08 17:02 | 40.33160 | 20.42888 | 36011 ft | 423 kts | 329° |
| 2026-05-08 17:02 | 40.38404 | 20.39511 | 35748 ft | 420 kts | 330° |
| 2026-05-08 17:03 | 40.41059 | 20.37799 | 35496 ft | 429 kts | 330° |
| 2026-05-08 17:03 | 40.43749 | 20.36063 | 35197 ft | 431 kts | 330° |
| 2026-05-08 17:03 | 40.46434 | 20.34334 | 34654 ft | 429 kts | 330° |
| 2026-05-08 17:03 | 40.49080 | 20.32623 | 34010 ft | 429 kts | 330° |
| 2026-05-08 17:04 | 40.51792 | 20.30866 | 33245 ft | 429 kts | 331° |
| 2026-05-08 17:04 | 40.54431 | 20.29151 | 32552 ft | 429 kts | 330° |
| 2026-05-08 17:04 | 40.57113 | 20.27392 | 31846 ft | 430 kts | 331° |
| 2026-05-08 17:04 | 40.59791 | 20.25635 | 31150 ft | 430 kts | 331° |
| 2026-05-08 17:05 | 40.62475 | 20.23874 | 30474 ft | 431 kts | 331° |
| 2026-05-08 17:05 | 40.65162 | 20.22112 | 29721 ft | 432 kts | 332° |
| 2026-05-08 17:05 | 40.67857 | 20.20343 | 28863 ft | 433 kts | 331° |
| 2026-05-08 17:05 | 40.70557 | 20.18568 | 28031 ft | 434 kts | 332° |
| 2026-05-08 17:06 | 40.73265 | 20.16786 | 27227 ft | 435 kts | 331° |
| 2026-05-08 17:06 | 40.75978 | 20.15000 | 26411 ft | 436 kts | 331° |
| 2026-05-08 17:06 | 40.78694 | 20.13208 | 25609 ft | 437 kts | 331° |
| 2026-05-08 17:06 | 40.81412 | 20.11415 | 24866 ft | 434 kts | 331° |
| 2026-05-08 17:07 | 40.84101 | 20.09603 | 24149 ft | 433 kts | 328° |
| 2026-05-08 17:07 | 40.86586 | 20.07396 | 23444 ft | 429 kts | 318° |
| 2026-05-08 17:07 | 40.88692 | 20.04645 | 22652 ft | 424 kts | 309° |
| 2026-05-08 17:07 | 40.90601 | 20.01677 | 21907 ft | 422 kts | 308° |
| 2026-05-08 17:08 | 40.92470 | 19.98711 | 21193 ft | 420 kts | 307° |
| 2026-05-08 17:08 | 40.94343 | 19.95754 | 20480 ft | 418 kts | 308° |
| 2026-05-08 17:08 | 40.96206 | 19.92827 | 19783 ft | 415 kts | 308° |
| 2026-05-08 17:08 | 40.98064 | 19.89912 | 19121 ft | 412 kts | 307° |
| 2026-05-08 17:09 | 40.99913 | 19.87014 | 18470 ft | 410 kts | 307° |
| 2026-05-08 17:09 | 41.01747 | 19.84130 | 17771 ft | 409 kts | 307° |
| 2026-05-08 17:09 | 41.03574 | 19.81260 | 17122 ft | 407 kts | 307° |
| 2026-05-08 17:09 | 41.05393 | 19.78406 | 16526 ft | 404 kts | 307° |
| 2026-05-08 17:10 | 41.07193 | 19.75577 | 15929 ft | 401 kts | 307° |
| 2026-05-08 17:10 | 41.08966 | 19.72787 | 15330 ft | 400 kts | 307° |
| 2026-05-08 17:10 | 41.10753 | 19.69966 | 14735 ft | 398 kts | 307° |
| 2026-05-08 17:10 | 41.12529 | 19.67161 | 14126 ft | 398 kts | 307° |
| 2026-05-08 17:11 | 41.14312 | 19.64343 | 13460 ft | 398 kts | 307° |
| 2026-05-08 17:11 | 41.16253 | 19.61725 | 12774 ft | 401 kts | 319° |
| 2026-05-08 17:11 | 41.18666 | 19.59875 | 12147 ft | 404 kts | 335° |
| 2026-05-08 17:11 | 41.21411 | 19.59035 | 11645 ft | 400 kts | 351° |
| 2026-05-08 17:12 | 41.24133 | 19.58707 | 11341 ft | 385 kts | 352° |
| 2026-05-08 17:12 | 41.26754 | 19.58416 | 11120 ft | 370 kts | 352° |
| 2026-05-08 17:12 | 41.29271 | 19.58120 | 10916 ft | 355 kts | 352° |
| 2026-05-08 17:12 | 41.31675 | 19.57816 | 10739 ft | 340 kts | 351° |
| 2026-05-08 17:13 | 41.33986 | 19.57511 | 10555 ft | 327 kts | 351° |
| 2026-05-08 17:13 | 41.36205 | 19.57210 | 10386 ft | 315 kts | 351° |
| 2026-05-08 17:13 | 41.38339 | 19.56921 | 10188 ft | 303 kts | 351° |
| 2026-05-08 17:13 | 41.40433 | 19.56636 | 9750 ft | 302 kts | 351° |
| 2026-05-08 17:14 | 41.42526 | 19.56351 | 9251 ft | 302 kts | 352° |
| 2026-05-08 17:14 | 41.44610 | 19.56068 | 8815 ft | 299 kts | 351° |
| 2026-05-08 17:14 | 41.46671 | 19.55786 | 8354 ft | 298 kts | 352° |
| 2026-05-08 17:14 | 41.48734 | 19.55504 | 7919 ft | 296 kts | 352° |
| 2026-05-08 17:15 | 41.50781 | 19.55223 | 7489 ft | 295 kts | 352° |
| 2026-05-08 17:15 | 41.52812 | 19.54944 | 7080 ft | 293 kts | 352° |
| 2026-05-08 17:15 | 41.54822 | 19.54670 | 6930 ft | 281 kts | 353° |
| 2026-05-08 17:15 | 41.56669 | 19.54420 | 7254 ft | 255 kts | 352° |
| 2026-05-08 17:16 | 41.58422 | 19.54179 | 6886 ft | 255 kts | 352° |
| 2026-05-08 17:16 | 41.60174 | 19.53940 | 6455 ft | 257 kts | 353° |
| 2026-05-08 17:16 | 41.61980 | 19.54047 | 5937 ft | 260 kts | 17° |
| 2026-05-08 17:16 | 41.63454 | 19.55279 | 5573 ft | 252 kts | 51° |
| 2026-05-08 17:17 | 41.64198 | 19.57290 | 5183 ft | 236 kts | 80° |
| 2026-05-08 17:17 | 41.64349 | 19.59410 | 4848 ft | 223 kts | 90° |
| 2026-05-08 17:17 | 41.64396 | 19.61448 | 4420 ft | 217 kts | 89° |
| 2026-05-08 17:17 | 41.64477 | 19.63446 | 4084 ft | 215 kts | 88° |
| 2026-05-08 17:18 | 41.64589 | 19.65437 | 4000 ft | 215 kts | 89° |
| 2026-05-08 17:18 | 41.64412 | 19.67393 | 3984 ft | 212 kts | 115° |
| 2026-05-08 17:18 | 41.63512 | 19.68897 | 3965 ft | 208 kts | 147° |
| 2026-05-08 17:18 | 41.62176 | 19.69523 | 3634 ft | 204 kts | 174° |
| 2026-05-08 17:19 | 41.60753 | 19.69635 | 3234 ft | 205 kts | 176° |
| 2026-05-08 17:19 | 41.59323 | 19.69748 | 3017 ft | 206 kts | 175° |
| 2026-05-08 17:19 | 41.57888 | 19.69897 | 2969 ft | 207 kts | 174° |
| 2026-05-08 17:19 | 41.56454 | 19.70066 | 2811 ft | 206 kts | 173° |
| 2026-05-08 17:20 | 41.55026 | 19.70251 | 2564 ft | 206 kts | 173° |
| 2026-05-08 17:20 | 41.53604 | 19.70440 | 2296 ft | 203 kts | 173° |
| 2026-05-08 17:20 | 41.52259 | 19.70619 | 2088 ft | 186 kts | 173° |
| 2026-05-08 17:20 | 41.51008 | 19.70787 | 1818 ft | 176 kts | 173° |
| 2026-05-08 17:21 | 41.49827 | 19.70945 | 1599 ft | 165 kts | 172° |
| 2026-05-08 17:21 | 41.48722 | 19.71091 | 1370 ft | 150 kts | 172° |
| 2026-05-08 17:21 | 41.47745 | 19.71222 | 1097 ft | 138 kts | 172° |
| 2026-05-08 17:21 | 41.46781 | 19.71351 | 945 ft | 139 kts | 173° |
| 2026-05-08 17:22 | 41.45820 | 19.71475 | 750 ft | 138 kts | 173° |
| 2026-05-08 17:22 | 41.44867 | 19.71603 | 578 ft | 137 kts | 174° |
| 2026-05-08 17:22 | 41.43917 | 19.71735 | 390 ft | 137 kts | 173° |
| 2026-05-08 17:22 | 41.42976 | 19.71855 | 216 ft | 135 kts | 174° |
| 2026-05-08 17:23 | 41.42061 | 19.71976 | 133 ft | 123 kts | 173° |
| 2026-05-08 17:23 | 41.41342 | 19.72077 | 134 ft | 77 kts | 172° |
| 2026-05-08 17:23 | 41.41005 | 19.72120 | 139 ft | 29 kts | 174° |
| 2026-05-08 17:23 | 41.40815 | 19.72145 | 138 ft | 23 kts | 175° |
| 2026-05-08 17:24 | 41.40714 | 19.72156 | 140 ft | 9 kts | 182° |
| 2026-05-08 17:24 | 41.40679 | 19.72101 | 139 ft | 9 kts | 253° |
| 2026-05-08 17:24 | 41.40664 | 19.72018 | 137 ft | 10 kts | 257° |
| 2026-05-08 17:24 | 41.40647 | 19.71919 | 137 ft | 12 kts | 257° |
| 2026-05-08 17:25 | 41.40634 | 19.71815 | 137 ft | 9 kts | 282° |
| 2026-05-08 17:25 | 41.40692 | 19.71767 | 137 ft | 11 kts | 354° |
| 2026-05-08 17:25 | 41.40776 | 19.71756 | 137 ft | 13 kts | 352° |
| 2026-05-08 17:25 | 41.40871 | 19.71734 | 137 ft | 14 kts | 348° |
| 2026-05-08 17:26 | 41.40975 | 19.71711 | 136 ft | 16 kts | 353° |
| 2026-05-08 17:26 | 41.41090 | 19.71696 | 136 ft | 17 kts | 354° |
| 2026-05-08 17:26 | 41.41171 | 19.71685 | 135 ft | 18 kts | 354° |
| 2026-05-08 17:26 | 41.41300 | 19.71668 | 134 ft | 19 kts | 354° |
| 2026-05-08 17:27 | 41.41484 | 19.71643 | 133 ft | 21 kts | 354° |
| 2026-05-08 17:27 | 41.41580 | 19.71631 | 132 ft | 21 kts | 354° |
| 2026-05-08 17:27 | 41.41731 | 19.71610 | 125 ft | 22 kts | 354° |
| 2026-05-08 17:27 | 41.41826 | 19.71598 | 127 ft | 9 kts | 355° |
| 2026-05-08 17:28 | 41.41871 | 19.71589 | 129 ft | 5 kts | 330° |
| 2026-05-08 17:28 | 41.41873 | 19.71559 | 126 ft | 4 kts | 264° |
| 2026-05-08 17:28 | 41.41871 | 19.71534 | 129 ft | 1 kts | 264° |
| 2026-05-08 17:28 | 41.41871 | 19.71530 | 129 ft | 0 kts | 264° |